Time;durP1;ratioP1;P1;durP2;ratioP2;P2;SDS_P1;SDS_P2;PMS_P1;PMS_P2;Temp;Humidity;BMP_temperature;BMP_pressure;BME280_temperature;BME280_humidity;BME280_pressure;Samples;Min_cycle;Max_cycle;Signal;HPM_P1;HPM_P2
2024/04/09 00:02:21;;;;;;;3.00;0.90;;;;;;;16.11;96.93;100170.19;5527697;26;20792;-69
2024/04/09 00:04:47;;;;;;;3.10;1.20;;;;;;;16.08;95.53;100153.69;5526599;26;20459;-69
2024/04/09 00:07:15;;;;;;;3.13;1.33;;;;;;;16.02;94.58;100155.84;5525660;26;21099;-68
2024/04/09 00:09:42;;;;;;;2.80;1.00;;;;;;;16.01;95.12;100158.94;5527952;26;20626;-68
2024/04/09 00:12:12;;;;;;;3.20;1.40;;;;;;;16.02;96.79;100160.50;5527992;26;20515;-68
2024/04/09 00:14:47;;;;;;;3.03;1.33;;;;;;;15.98;98.55;100162.34;5528089;26;20986;-68
2024/04/09 00:17:18;;;;;;;2.70;0.90;;;;;;;15.98;99.22;100160.44;5528180;26;21042;-68
2024/04/09 00:19:47;;;;;;;2.10;0.50;;;;;;;15.96;99.85;100161.91;5527866;26;20467;-68
2024/04/09 00:22:15;;;;;;;3.63;1.17;;;;;;;15.96;100.00;100156.47;5527815;26;20774;-68
2024/04/09 00:24:41;;;;;;;4.13;1.60;;;;;;;15.95;100.00;100166.59;5527744;26;20511;-68
2024/04/09 00:27:09;;;;;;;2.50;0.90;;;;;;;15.92;100.00;100166.47;5527413;26;20474;-68
2024/04/09 00:29:36;;;;;;;3.00;0.90;;;;;;;15.88;100.00;100164.44;5527655;26;20273;-68
2024/04/09 00:32:07;;;;;;;3.07;1.00;;;;;;;15.86;100.00;100161.28;5527784;26;20450;-68
2024/04/09 00:34:33;;;;;;;3.33;0.90;;;;;;;15.82;100.00;100157.63;5527415;26;20462;-68
2024/04/09 00:37:04;;;;;;;3.80;1.20;;;;;;;15.80;100.00;100156.38;5527713;25;20510;-68
2024/04/09 00:39:33;;;;;;;2.80;1.10;;;;;;;15.74;100.00;100158.56;5527796;25;20214;-68
2024/04/09 00:42:03;;;;;;;3.13;0.90;;;;;;;15.74;100.00;100158.56;5527548;25;20442;-68
2024/04/09 00:44:31;;;;;;;5.90;1.50;;;;;;;15.71;100.00;100150.28;5527307;25;20507;-68
2024/04/09 00:46:59;;;;;;;3.10;1.13;;;;;;;15.64;100.00;100150.88;5527564;25;20506;-68
2024/04/09 00:49:28;;;;;;;3.47;1.20;;;;;;;15.59;98.82;100153.81;5527551;25;20447;-68
2024/04/09 00:51:56;;;;;;;3.07;0.97;;;;;;;15.49;98.12;100146.09;5527433;25;20801;-68
2024/04/09 00:54:22;;;;;;;3.10;1.37;;;;;;;15.45;96.14;100147.91;5527286;25;20974;-68
2024/04/09 00:56:51;;;;;;;3.23;1.00;;;;;;;15.39;95.90;100150.09;5526992;25;20837;-68
2024/04/09 00:59:17;;;;;;;4.17;1.40;;;;;;;15.38;96.29;100154.75;5527302;26;20811;-68
2024/04/09 01:01:46;;;;;;;2.90;1.10;;;;;;;15.38;98.10;100157.50;5527417;26;20455;-68
2024/04/09 01:04:12;;;;;;;3.13;1.13;;;;;;;15.40;99.85;100157.13;5531215;25;20281;-68
2024/04/09 01:06:43;;;;;;;4.00;1.57;;;;;;;15.42;100.00;100156.81;5562700;25;20465;-68
2024/04/09 01:09:09;;;;;;;3.27;1.40;;;;;;;15.42;100.00;100165.78;5543933;25;20322;-68
2024/04/09 01:11:38;;;;;;;2.60;0.90;;;;;;;15.41;100.00;100158.75;5527108;26;20844;-68
2024/04/09 01:14:03;;;;;;;3.90;0.80;;;;;;;15.37;100.00;100155.91;5526985;26;20534;-68
2024/04/09 01:16:32;;;;;;;3.57;1.30;;;;;;;15.37;100.00;100152.38;5527027;26;20784;-68
2024/04/09 01:18:58;;;;;;;2.90;1.20;;;;;;;15.26;100.00;100157.50;5526539;26;20286;-68
2024/04/09 01:21:26;;;;;;;5.60;0.87;;;;;;;15.30;100.00;100152.94;5490028;26;20574;-68
2024/04/09 01:23:54;;;;;;;2.80;0.97;;;;;;;15.29;100.00;100154.09;5489982;26;20468;-69
2024/04/09 01:26:23;;;;;;;2.93;1.10;;;;;;;15.33;100.00;100152.28;5490000;26;20452;-68
2024/04/09 01:28:48;;;;;;;3.00;1.20;;;;;;;15.35;100.00;100154.66;5489893;26;20452;-68
2024/04/09 01:31:17;;;;;;;3.60;1.40;;;;;;;15.33;100.00;100149.53;5523932;26;20844;-68
2024/04/09 01:33:42;;;;;;;2.93;0.80;;;;;;;15.27;100.00;100152.84;5526634;26;20246;-68
2024/04/09 01:36:11;;;;;;;2.63;1.07;;;;;;;15.27;100.00;100148.19;5526748;25;20509;-68
2024/04/09 01:38:37;;;;;;;4.03;1.20;;;;;;;15.25;100.00;100145.00;5526778;26;20229;-68
2024/04/09 01:41:09;;;;;;;2.87;1.10;;;;;;;15.20;100.00;100142.50;5526449;26;20576;-68
2024/04/09 01:43:35;;;;;;;2.97;1.00;;;;;;;15.22;100.00;100136.69;5526052;26;20490;-68
2024/04/09 01:48:47;;;;;;;2.87;0.90;;;;;;;15.19;100.00;100143.66;5414301;26;20487;-64
2024/04/09 01:51:13;;;;;;;4.10;1.40;;;;;;;15.14;100.00;100141.97;5417257;26;20579;-64
2024/04/09 01:53:44;;;;;;;2.90;1.00;;;;;;;15.08;100.00;100147.97;5440092;26;20465;-64
2024/04/09 01:56:12;;;;;;;3.80;1.20;;;;;;;15.06;100.00;100152.97;5446717;26;20228;-64
2024/04/09 01:58:41;;;;;;;6.47;1.43;;;;;;;15.09;100.00;100157.75;5449663;26;20636;-67
2024/04/09 02:01:09;;;;;;;3.63;1.27;;;;;;;15.11;100.00;100152.75;5449507;26;20461;-68
2024/04/09 02:03:38;;;;;;;3.77;1.47;;;;;;;15.10;100.00;100154.69;5449497;26;21025;-67
2024/04/09 02:06:04;;;;;;;3.10;1.47;;;;;;;15.08;100.00;100147.97;5448128;26;20457;-66
2024/04/09 02:08:32;;;;;;;3.10;1.00;;;;;;;15.07;100.00;100154.56;5449666;26;20508;-67
2024/04/09 02:10:59;;;;;;;4.27;1.70;;;;;;;15.05;100.00;100151.38;5452812;26;21053;-67
2024/04/09 02:13:31;;;;;;;2.67;1.13;;;;;;;15.06;100.00;100148.31;5452707;26;20583;-67
2024/04/09 02:15:59;;;;;;;2.90;1.20;;;;;;;15.09;100.00;100144.09;5452802;26;20449;-67
2024/04/09 02:18:27;;;;;;;4.10;1.77;;;;;;;15.02;100.00;100143.91;5429693;26;20530;-66
2024/04/09 02:20:53;;;;;;;2.63;0.77;;;;;;;14.97;100.00;100141.41;5419507;26;20458;-66
2024/04/09 02:23:22;;;;;;;3.70;0.90;;;;;;;14.88;100.00;100142.31;5420222;26;20522;-66
2024/04/09 02:25:47;;;;;;;2.87;0.97;;;;;;;14.85;100.00;100148.44;5420271;26;20750;-66
2024/04/09 02:28:15;;;;;;;2.87;1.03;;;;;;;14.78;98.54;100141.94;5422659;26;20463;-66
2024/04/09 02:30:44;;;;;;;4.00;1.40;;;;;;;14.71;98.86;100142.53;5420282;26;20272;-66
2024/04/09 02:33:13;;;;;;;3.53;1.20;;;;;;;14.73;99.50;100142.97;5420002;26;20561;-67
2024/04/09 02:35:42;;;;;;;8.67;2.10;;;;;;;14.69;100.00;100146.69;5420151;26;20601;-67
2024/04/09 02:38:11;;;;;;;4.43;1.40;;;;;;;14.71;100.00;100142.53;5420040;26;20510;-66
2024/04/09 02:40:37;;;;;;;2.80;1.03;;;;;;;14.76;100.00;100138.78;5422383;26;20523;-66
2024/04/09 02:43:06;;;;;;;3.90;1.43;;;;;;;14.74;100.00;100133.66;5428621;26;20474;-66
2024/04/09 02:45:33;;;;;;;3.47;1.40;;;;;;;14.68;100.00;100136.94;5419909;26;20260;-66
2024/04/09 02:48:04;;;;;;;4.57;1.43;;;;;;;14.68;100.00;100137.72;5420058;26;20463;-66
2024/04/09 02:50:29;;;;;;;2.87;1.03;;;;;;;14.66;100.00;100140.03;5419968;26;20225;-66
2024/04/09 02:52:58;;;;;;;5.00;1.23;;;;;;;14.64;100.00;100131.38;5420554;26;20538;-66
2024/04/09 02:55:23;;;;;;;2.60;0.70;;;;;;;14.70;100.00;100135.47;5455370;26;20232;-66
2024/04/09 02:57:52;;;;;;;2.63;0.87;;;;;;;14.72;100.00;100135.13;5455767;26;20453;-66
2024/04/09 03:00:19;;;;;;;4.73;1.27;;;;;;;14.77;100.00;100140.34;5455760;26;20259;-67
2024/04/09 03:02:51;;;;;;;4.60;1.80;;;;;;;14.71;100.00;100141.72;5455582;26;20835;-67
2024/04/09 03:05:27;;;;;;;3.03;1.23;;;;;;;14.64;100.00;100140.34;5452342;26;20529;-66
2024/04/09 03:07:55;;;;;;;3.00;1.03;;;;;;;14.65;100.00;100141.13;5455871;26;20513;-65
2024/04/09 03:10:21;;;;;;;2.47;0.80;;;;;;;14.64;100.00;100140.34;5455531;26;20450;-66
2024/04/09 03:12:50;;;;;;;2.90;1.30;;;;;;;14.62;100.00;100139.91;5455650;26;21066;-66
2024/04/09 03:15:15;;;;;;;2.90;1.20;;;;;;;14.64;100.00;100145.00;5452713;26;20228;-65
2024/04/09 03:17:44;;;;;;;2.80;1.10;;;;;;;14.61;100.00;100140.25;5455443;26;20454;-65
2024/04/09 03:20:10;;;;;;;14.67;1.77;;;;;;;14.60;100.00;100133.97;5455474;26;20224;-65
2024/04/09 03:22:42;;;;;;;5.53;1.60;;;;;;;14.59;100.00;100135.13;5455221;26;20497;-65
2024/04/09 03:25:08;;;;;;;3.33;1.47;;;;;;;14.59;100.00;100139.78;5454928;26;20575;-65
2024/04/09 03:27:36;;;;;;;2.83;1.10;;;;;;;14.55;100.00;100138.84;5420863;26;20883;-66
2024/04/09 03:30:03;;;;;;;2.80;1.10;;;;;;;14.50;100.00;100137.16;5419396;26;20720;-66
2024/04/09 03:32:31;;;;;;;3.40;1.30;;;;;;;14.53;100.00;100131.03;5418585;26;20471;-66
2024/04/09 03:34:57;;;;;;;4.20;1.50;;;;;;;14.54;100.00;100138.06;5419288;26;20456;-66
2024/04/09 03:37:25;;;;;;;3.53;1.20;;;;;;;14.56;100.00;100135.00;5440648;26;21049;-66
2024/04/09 03:39:56;;;;;;;3.27;1.30;;;;;;;14.56;100.00;100135.78;5455160;26;20255;-66
2024/04/09 03:42:24;;;;;;;2.93;1.03;;;;;;;14.52;100.00;100125.91;5455056;26;20462;-66
2024/04/09 03:44:50;;;;;;;2.70;1.10;;;;;;;14.52;100.00;100125.91;5455081;26;20846;-66
2024/04/09 03:47:18;;;;;;;3.37;1.13;;;;;;;14.48;100.00;100125.81;5446890;26;20467;-66
2024/04/09 03:49:44;;;;;;;3.37;1.80;;;;;;;14.48;100.00;100127.69;5419109;26;20219;-66
2024/04/09 03:52:12;;;;;;;6.60;1.73;;;;;;;14.46;100.00;100124.50;5418951;26;20454;-67
2024/04/09 03:54:37;;;;;;;5.23;1.40;;;;;;;14.35;100.00;100119.50;5419036;26;20297;-68
2024/04/09 03:57:08;;;;;;;5.17;1.33;;;;;;;14.36;100.00;100121.09;5418951;26;20451;-68
2024/04/09 03:59:34;;;;;;;3.00;1.30;;;;;;;14.37;100.00;100121.88;5421681;26;20283;-68
2024/04/09 04:02:03;;;;;;;2.80;1.10;;;;;;;14.39;100.00;100120.41;5418638;26;20854;-68
2024/04/09 04:04:29;;;;;;;3.10;1.30;;;;;;;14.37;100.00;100117.22;5453695;26;20477;-68
2024/04/09 04:06:57;;;;;;;2.87;1.20;;;;;;;14.37;100.00;100110.97;5454725;26;20457;-68
2024/04/09 04:09:23;;;;;;;4.80;1.40;;;;;;;14.33;100.00;100105.41;5452398;26;20282;-68
2024/04/09 04:11:52;;;;;;;4.80;1.67;;;;;;;14.34;100.00;100115.19;5454718;26;20454;-68
2024/04/09 04:14:21;;;;;;;6.57;2.30;;;;;;;14.36;100.00;100112.91;5454738;26;20523;-67
2024/04/09 04:16:49;;;;;;;3.63;1.60;;;;;;;14.37;100.00;100113.69;5454619;26;20997;-67
2024/04/09 04:19:16;;;;;;;5.53;2.30;;;;;;;14.30;100.00;100111.53;5451844;26;20848;-67
2024/04/09 04:21:44;;;;;;;8.43;2.07;;;;;;;14.33;100.00;100099.94;5454490;26;20537;-67
2024/04/09 04:24:10;;;;;;;5.10;2.67;;;;;;;14.36;100.00;100104.72;5454516;26;20461;-67
2024/04/09 04:26:38;;;;;;;3.90;1.87;;;;;;;14.31;100.00;100110.41;5454576;26;20505;-67
2024/04/09 04:29:04;;;;;;;8.30;3.13;;;;;;;14.28;100.00;100102.09;5454439;26;20224;-67
2024/04/09 04:31:36;;;;;;;7.17;2.50;;;;;;;14.23;100.00;100100.41;5451625;26;20576;-67
2024/04/09 04:34:02;;;;;;;7.03;3.03;;;;;;;14.21;100.00;100105.41;5454402;26;20228;-70
2024/04/09 04:36:31;;;;;;;5.27;2.60;;;;;;;14.20;100.00;100105.72;5454356;26;20501;-68
2024/04/09 04:38:57;;;;;;;5.97;2.20;;;;;;;14.14;100.00;100097.75;5454359;26;20272;-68
2024/04/09 04:41:25;;;;;;;5.00;2.80;;;;;;;14.12;100.00;100093.78;5451626;26;20904;-68
2024/04/09 04:43:55;;;;;;;7.27;2.47;;;;;;;14.13;100.00;100096.19;5452580;26;20228;-68
2024/04/09 04:46:24;;;;;;;8.53;2.67;;;;;;;14.15;100.00;100090.38;5454070;26;20575;-69
2024/04/09 04:48:52;;;;;;;5.70;3.20;;;;;;;14.17;100.00;100093.59;5454155;26;20457;-69
2024/04/09 04:51:20;;;;;;;6.50;3.40;;;;;;;14.18;100.00;100092.44;5451358;26;20505;-69
2024/04/09 04:53:46;;;;;;;5.40;3.00;;;;;;;14.17;100.00;100085.41;5453940;26;20470;-69
2024/04/09 04:56:14;;;;;;;9.67;2.77;;;;;;;14.19;100.00;100093.22;5454103;26;20512;-69
2024/04/09 04:58:40;;;;;;;12.10;3.00;;;;;;;14.24;100.00;100093.81;5453968;26;20708;-69
2024/04/09 05:01:08;;;;;;;5.23;2.57;;;;;;;14.21;100.00;100099.94;5453949;26;20501;-69
2024/04/09 05:03:34;;;;;;;5.40;2.87;;;;;;;14.21;100.00;100099.94;5429436;26;20682;-69
2024/04/09 05:06:09;;;;;;;5.40;3.40;;;;;;;14.28;100.00;100091.22;5419019;26;20493;-68
2024/04/09 05:08:34;;;;;;;5.90;2.63;;;;;;;14.27;100.00;100089.63;5417974;26;20220;-67
2024/04/09 05:11:09;;;;;;;9.50;3.60;;;;;;;14.33;100.00;100099.94;5417844;26;20978;-67
2024/04/09 05:13:35;;;;;;;6.67;2.73;;;;;;;14.34;100.00;100096.13;5420241;26;20283;-68
2024/04/09 05:16:04;;;;;;;5.50;2.40;;;;;;;14.33;100.00;100088.25;5417949;26;21075;-68
2024/04/09 05:18:30;;;;;;;4.83;1.77;;;;;;;14.33;100.00;100086.31;5417823;26;20460;-68
2024/04/09 05:20:58;;;;;;;14.23;2.27;;;;;;;14.42;100.00;100096.34;5417608;26;20447;-68
2024/04/09 05:23:27;;;;;;;4.27;2.23;;;;;;;14.48;100.00;100089.53;5420391;26;20463;-69
2024/04/09 05:25:56;;;;;;;4.90;2.10;;;;;;;14.50;100.00;100096.25;5423927;26;20459;-69
2024/04/09 05:28:22;;;;;;;3.83;2.20;;;;;;;14.59;100.00;100093.44;5417685;26;20455;-69
2024/04/09 05:30:50;;;;;;;4.90;3.00;;;;;;;14.67;100.00;100089.81;5417555;26;20443;-69
2024/04/09 05:33:16;;;;;;;6.67;3.23;;;;;;;14.79;100.00;100089.81;5417523;26;20467;-69
2024/04/09 05:35:44;;;;;;;5.53;2.50;;;;;;;14.89;100.00;100096.72;5419807;26;20459;-69
2024/04/09 05:38:10;;;;;;;5.17;2.57;;;;;;;14.96;100.00;100093.41;5450280;26;20232;-69
2024/04/09 05:40:40;;;;;;;6.20;3.30;;;;;;;15.06;100.00;100099.22;5453334;26;20509;-69
2024/04/09 05:43:07;;;;;;;5.83;3.00;;;;;;;15.19;100.00;100099.22;5453350;26;20232;-69
2024/04/09 05:45:35;;;;;;;6.73;3.80;;;;;;;15.29;100.00;100093.28;5431090;26;20459;-69
2024/04/09 05:48:01;;;;;;;6.93;3.30;;;;;;;15.37;100.00;100095.88;5417819;26;20470;-69
2024/04/09 05:50:29;;;;;;;6.13;2.77;;;;;;;15.49;100.00;100094.22;5417231;26;20455;-69
2024/04/09 05:52:55;;;;;;;14.73;4.50;;;;;;;15.58;100.00;100098.44;5417188;26;20230;-69
2024/04/09 05:55:24;;;;;;;6.07;3.10;;;;;;;15.68;100.00;100096.38;5431321;26;20551;-69
2024/04/09 05:57:52;;;;;;;5.83;3.33;;;;;;;15.78;100.00;100093.13;5456521;26;20287;-69
2024/04/09 06:00:21;;;;;;;9.70;3.17;;;;;;;15.88;100.00;100104.34;5456640;26;20453;-69
2024/04/09 06:02:47;;;;;;;6.63;3.90;;;;;;;15.98;100.00;100096.78;5456392;26;20469;-70
2024/04/09 06:05:17;;;;;;;7.77;3.73;;;;;;;16.04;100.00;100092.69;5455826;26;20517;-69
2024/04/09 06:07:43;;;;;;;7.97;5.40;;;;;;;16.12;100.00;100078.06;5455615;26;20240;-69
2024/04/09 06:10:15;;;;;;;8.80;4.80;;;;;;;16.21;100.00;100086.88;5463544;26;20457;-71
2024/04/09 06:12:40;;;;;;;7.77;4.50;;;;;;;16.30;100.00;100087.50;5456752;26;21027;-68
2024/04/09 06:15:11;;;;;;;10.23;4.63;;;;;;;16.39;100.00;100079.94;5456018;26;20509;-68
2024/04/09 06:17:37;;;;;;;17.23;4.20;;;;;;;16.53;100.00;100082.22;5453390;26;20225;-68
2024/04/09 06:20:06;;;;;;;8.37;4.47;;;;;;;16.64;100.00;100086.03;5456271;26;20450;-69
2024/04/09 06:22:32;;;;;;;9.73;4.60;;;;;;;16.80;100.00;100077.03;5456149;26;20282;-69
2024/04/09 06:25:00;;;;;;;8.13;4.77;;;;;;;16.95;100.00;100080.88;5456262;26;20458;-70
2024/04/09 06:27:26;;;;;;;8.10;4.43;;;;;;;17.09;100.00;100078.47;5452921;26;20228;-70
2024/04/09 06:29:54;;;;;;;7.30;4.27;;;;;;;17.24;100.00;100085.84;5455403;26;20526;-71
2024/04/09 06:32:22;;;;;;;12.20;5.87;;;;;;;17.39;100.00;100078.72;5457651;26;20255;-70
2024/04/09 06:34:50;;;;;;;8.83;5.10;;;;;;;17.53;100.00;100081.75;5446389;26;20533;-70
2024/04/09 06:37:16;;;;;;;8.60;4.53;;;;;;;17.64;100.00;100077.28;5437293;26;20518;-67
2024/04/09 06:39:45;;;;;;;12.17;5.20;;;;;;;17.77;100.00;100074.41;5419990;26;20455;-66
2024/04/09 06:42:11;;;;;;;12.07;5.07;;;;;;;17.89;100.00;100068.78;5419983;26;20463;-66
2024/04/09 06:44:40;;;;;;;8.73;4.40;;;;;;;18.00;100.00;100067.03;5419945;26;20543;-67
2024/04/09 06:47:05;;;;;;;7.83;4.50;;;;;;;18.14;100.00;100071.97;5452716;26;20769;-66
2024/04/09 06:49:36;;;;;;;11.80;4.83;;;;;;;18.26;100.00;100066.31;5449367;26;20458;-66
2024/04/09 06:52:02;;;;;;;11.63;4.93;;;;;;;18.39;99.49;100066.91;5432096;26;20279;-66
2024/04/09 06:54:31;;;;;;;11.07;4.60;;;;;;;18.52;98.93;100060.09;5419941;26;20458;-66
2024/04/09 06:56:56;;;;;;;6.60;4.30;;;;;;;18.63;98.51;100061.03;5420072;26;20221;-66
2024/04/09 06:59:25;;;;;;;6.93;3.67;;;;;;;18.78;97.65;100062.09;5419763;26;20500;-66
2024/04/09 07:01:51;;;;;;;7.93;4.30;;;;;;;18.92;96.97;100066.22;5427239;26;20229;-66
2024/04/09 07:04:19;;;;;;;6.07;3.60;;;;;;;19.05;96.33;100067.56;5441109;26;21032;-66
2024/04/09 07:06:49;;;;;;;9.90;4.63;;;;;;;19.17;96.15;100064.59;5431416;26;20463;-67
2024/04/09 07:09:19;;;;;;;7.30;3.73;;;;;;;19.29;95.87;100066.31;5419857;26;20455;-67
2024/04/09 07:11:45;;;;;;;6.70;3.90;;;;;;;19.38;95.08;100059.38;5419701;26;20451;-67
2024/04/09 07:14:14;;;;;;;11.43;4.00;;;;;;;19.52;93.98;100069.78;5421718;26;20560;-66
2024/04/09 07:16:41;;;;;;;13.43;4.07;;;;;;;19.62;93.18;100060.88;5419542;26;20460;-67
2024/04/09 07:19:09;;;;;;;6.80;3.70;;;;;;;19.75;92.36;100072.41;5435063;26;20461;-66
2024/04/09 07:21:35;;;;;;;6.40;3.70;;;;;;;19.82;91.94;100064.22;5426618;26;20516;-67
2024/04/09 07:24:07;;;;;;;8.47;3.67;;;;;;;19.93;91.32;100058.06;5447895;26;20460;-66
2024/04/09 07:26:33;;;;;;;6.80;3.80;;;;;;;19.98;90.53;100063.22;5491923;26;20257;-66
2024/04/09 07:29:01;;;;;;;5.93;3.43;;;;;;;20.07;89.95;100061.75;5491939;26;20871;-67
2024/04/09 07:31:26;;;;;;;4.97;3.30;;;;;;;20.19;89.00;100071.69;5434315;26;20322;-66
2024/04/09 07:33:55;;;;;;;5.77;3.47;;;;;;;20.26;88.15;100066.25;5419375;26;20468;-67
2024/04/09 07:36:21;;;;;;;7.17;3.07;;;;;;;20.39;87.36;100064.00;5421687;26;20229;-67
2024/04/09 07:38:52;;;;;;;5.27;2.90;;;;;;;20.50;86.88;100061.38;5419212;26;20451;-67
2024/04/09 07:41:22;;;;;;;6.30;3.10;;;;;;;20.58;86.03;100061.03;5426527;26;20228;-67
2024/04/09 07:43:51;;;;;;;6.37;3.00;;;;;;;20.63;84.82;100059.91;5455054;26;20528;-67
2024/04/09 07:46:17;;;;;;;5.13;2.97;;;;;;;20.66;83.29;100056.38;5454948;26;20579;-68
2024/04/09 07:48:45;;;;;;;6.70;2.93;;;;;;;20.68;83.09;100051.28;5445156;21;20522;-69
2024/04/09 07:51:11;;;;;;;5.13;2.20;;;;;;;20.73;82.40;100050.13;5419079;26;20256;-67
2024/04/09 07:53:39;;;;;;;10.43;3.40;;;;;;;20.75;82.79;100053.28;5398985;26;20484;-68
2024/04/09 07:56:06;;;;;;;10.10;2.90;;;;;;;20.83;82.67;100052.94;5383555;26;20710;-68
2024/04/09 07:58:37;;;;;;;7.03;3.70;;;;;;;20.91;82.60;100059.31;5385496;26;21090;-68
2024/04/09 08:01:03;;;;;;;5.20;2.70;;;;;;;20.97;81.40;100045.94;5419035;26;20458;-68
2024/04/09 08:03:32;;;;;;;5.90;3.00;;;;;;;21.04;80.90;100054.25;5388922;26;20520;-68
2024/04/09 08:05:58;;;;;;;6.70;2.80;;;;;;;21.14;80.69;100048.00;5383453;26;20579;-68
2024/04/09 08:08:26;;;;;;;6.83;2.57;;;;;;;21.24;79.88;100049.25;5399627;26;20482;-68
2024/04/09 08:10:51;;;;;;;5.30;2.50;;;;;;;21.33;79.37;100044.97;5419001;26;20225;-68
2024/04/09 08:13:20;;;;;;;9.13;3.00;;;;;;;21.46;79.42;100044.63;5418763;26;20474;-68
2024/04/09 08:15:50;;;;;;;6.60;3.10;;;;;;;21.52;79.57;100040.34;5418801;26;20218;-68
2024/04/09 08:18:18;;;;;;;8.63;2.83;;;;;;;21.56;78.47;100038.38;5415658;26;20467;-68
2024/04/09 08:20:44;;;;;;;3.60;1.57;;;;;;;21.61;77.51;100040.78;5395953;26;20485;-68
2024/04/09 08:23:13;;;;;;;5.80;2.60;;;;;;;21.74;77.69;100033.72;5415973;26;20990;-68
2024/04/09 08:25:39;;;;;;;4.17;2.20;;;;;;;21.83;76.79;100039.66;5411316;26;20471;-68
2024/04/09 08:28:07;;;;;;;4.87;2.40;;;;;;;21.94;75.91;100031.38;5418705;26;21013;-68
2024/04/09 08:30:33;;;;;;;4.40;2.13;;;;;;;22.09;75.59;100040.44;5418171;26;20474;-68
2024/04/09 08:33:04;;;;;;;4.73;2.73;;;;;;;22.24;75.25;100033.81;5418034;26;20599;-68
2024/04/09 08:35:30;;;;;;;6.90;2.77;;;;;;;22.35;73.54;100034.59;5394670;26;20242;-68
2024/04/09 08:37:58;;;;;;;5.93;3.00;;;;;;;22.47;73.82;100046.41;5383886;26;20466;-69
2024/04/09 08:40:24;;;;;;;4.30;2.20;;;;;;;22.55;73.77;100043.25;5395840;26;20726;-68
2024/04/09 08:42:53;;;;;;;3.97;1.80;;;;;;;22.62;72.96;100042.44;5382813;26;20469;-68
2024/04/09 08:45:19;;;;;;;4.40;2.20;;;;;;;22.67;72.18;100040.09;5382943;26;20219;-68
2024/04/09 08:47:48;;;;;;;6.20;2.60;;;;;;;22.80;71.51;100046.00;5382830;26;20514;-68
2024/04/09 08:50:16;;;;;;;6.60;2.80;;;;;;;22.91;71.72;100041.25;5385101;26;20245;-68
2024/04/09 08:52:45;;;;;;;4.33;2.40;;;;;;;23.02;69.99;100032.16;5382749;26;20623;-68
2024/04/09 08:55:11;;;;;;;5.33;2.47;;;;;;;23.12;69.46;100045.94;5410111;26;20515;-68
2024/04/09 08:57:39;;;;;;;6.30;2.07;;;;;;;23.19;69.44;100036.84;5398340;26;20467;-68
2024/04/09 09:00:06;;;;;;;4.00;2.37;;;;;;;23.21;66.89;100023.41;5418357;26;20225;-68
2024/04/09 09:02:35;;;;;;;4.10;2.07;;;;;;;23.23;67.56;100032.09;5392769;26;20484;-68
2024/04/09 09:05:01;;;;;;;4.43;2.67;;;;;;;23.23;67.60;100031.28;5386170;26;21059;-68
2024/04/09 09:07:32;;;;;;;6.47;3.13;;;;;;;23.35;67.35;100028.88;5387895;26;20460;-68
2024/04/09 09:10:03;;;;;;;6.17;2.70;;;;;;;23.45;66.73;100020.94;5382660;26;20261;-68
2024/04/09 09:12:31;;;;;;;6.57;2.83;;;;;;;23.51;66.55;100022.91;5382437;26;20509;-68
2024/04/09 09:15:00;;;;;;;4.63;2.47;;;;;;;23.59;66.87;100023.63;5382525;26;21036;-68
2024/04/09 09:17:29;;;;;;;5.17;2.17;;;;;;;23.66;67.83;100020.84;5384611;26;20460;-68
2024/04/09 09:19:58;;;;;;;4.83;2.30;;;;;;;23.75;68.31;100012.13;5383361;26;20476;-68
2024/04/09 09:22:29;;;;;;;6.07;2.53;;;;;;;23.82;64.86;100017.63;5382277;26;20488;-68
2024/04/09 09:25:00;;;;;;;9.83;2.33;;;;;;;23.88;65.58;100013.22;5387097;26;20464;-69
2024/04/09 09:27:29;;;;;;;3.40;1.90;;;;;;;23.98;65.43;100019.88;5397909;26;20516;-68
2024/04/09 09:29:56;;;;;;;4.80;2.60;;;;;;;24.03;66.01;100025.75;5392053;26;20473;-68
2024/04/09 09:32:24;;;;;;;3.67;2.20;;;;;;;24.10;64.64;100024.91;5396416;26;20483;-68
2024/04/09 09:34:53;;;;;;;5.53;2.47;;;;;;;24.19;64.63;100025.25;5396327;26;20852;-69
2024/04/09 09:37:22;;;;;;;4.67;1.90;;;;;;;24.24;63.30;100013.72;5400772;26;20808;-71
2024/04/09 09:39:51;;;;;;;4.63;2.20;;;;;;;24.27;64.42;100015.69;5398870;26;20984;-69
2024/04/09 09:42:23;;;;;;;4.77;2.40;;;;;;;24.33;64.56;100021.56;5397123;26;20464;-69
2024/04/09 09:44:51;;;;;;;5.23;1.90;;;;;;;24.35;64.92;100021.97;5409838;26;20527;-69
2024/04/09 09:47:21;;;;;;;4.47;1.67;;;;;;;24.42;63.13;100019.94;5390702;26;20464;-68
2024/04/09 09:49:47;;;;;;;4.63;2.30;;;;;;;24.50;61.40;100017.09;5381863;26;20460;-69
2024/04/09 09:52:16;;;;;;;3.50;1.77;;;;;;;24.54;62.96;100012.31;5394058;26;20461;-69
2024/04/09 09:54:43;;;;;;;5.07;2.60;;;;;;;24.65;61.99;100004.69;5417184;26;20510;-70
2024/04/09 09:57:16;;;;;;;4.53;2.37;;;;;;;24.73;62.61;100006.19;5417267;26;20848;-71
2024/04/09 09:59:51;;;;;;;4.80;2.23;;;;;;;24.84;62.61;100008.84;5417152;26;20463;-68
2024/04/09 10:02:21;;;;;;;10.20;2.57;;;;;;;24.95;62.69;100009.50;5414758;26;20518;-68
2024/04/09 10:04:48;;;;;;;4.70;2.30;;;;;;;25.06;61.73;99999.09;5417258;26;20455;-68
2024/04/09 10:07:17;;;;;;;4.77;1.83;;;;;;;25.10;60.51;99994.34;5417189;26;20442;-68
2024/04/09 10:09:43;;;;;;;10.10;2.60;;;;;;;25.16;57.54;99997.41;5417075;26;21068;-68
2024/04/09 10:12:21;;;;;;;5.20;2.20;;;;;;;25.31;57.07;100004.34;5417071;26;20986;-69
2024/04/09 10:14:55;;;;;;;4.43;2.00;;;;;;;25.42;56.73;99999.47;5413418;26;20471;-68
2024/04/09 10:17:24;;;;;;;3.53;1.93;;;;;;;25.56;58.17;100003.25;5416924;26;20580;-68
2024/04/09 10:19:49;;;;;;;5.23;2.30;;;;;;;25.65;58.50;100001.50;5416927;26;20455;-68
2024/04/09 10:22:18;;;;;;;5.70;2.87;;;;;;;25.70;58.66;100003.03;5416661;26;20525;-68
2024/04/09 10:24:43;;;;;;;3.60;2.00;;;;;;;25.81;57.00;100000.94;5400324;26;20602;-68
2024/04/09 10:27:13;;;;;;;4.20;1.77;;;;;;;25.96;57.35;99997.94;5381480;26;20468;-68
2024/04/09 10:29:50;;;;;;;3.33;1.80;;;;;;;26.10;57.36;100003.25;5381926;26;20230;-69
2024/04/09 10:32:24;;;;;;;5.57;1.60;;;;;;;26.21;55.50;100005.84;5381298;26;20467;-68
2024/04/09 10:34:52;;;;;;;5.53;1.73;;;;;;;26.34;54.51;100010.41;5380950;26;20992;-68
2024/04/09 10:37:20;;;;;;;5.80;2.23;;;;;;;26.45;54.45;100006.66;5392007;26;20824;-68
2024/04/09 10:39:46;;;;;;;3.67;1.90;;;;;;;26.54;53.86;100018.78;5381054;26;20516;-68
2024/04/09 10:42:20;;;;;;;5.63;2.37;;;;;;;26.59;52.16;100018.31;5382663;26;20512;-68
2024/04/09 10:44:46;;;;;;;7.50;2.17;;;;;;;26.66;51.75;100011.84;5384622;26;20226;-69
2024/04/09 10:47:14;;;;;;;4.37;2.03;;;;;;;26.82;52.71;100016.69;5384420;26;20504;-68
2024/04/09 10:49:42;;;;;;;8.20;2.33;;;;;;;26.85;50.66;100013.84;5414749;26;20229;-68
2024/04/09 10:52:11;;;;;;;5.40;1.97;;;;;;;26.83;50.52;100009.94;5419483;26;21058;-68
2024/04/09 10:54:36;;;;;;;6.33;2.27;;;;;;;26.91;52.05;100014.13;5419922;26;20463;-69
2024/04/09 10:57:05;;;;;;;7.13;2.20;;;;;;;26.95;50.59;100012.06;5419877;26;20451;-70
2024/04/09 10:59:31;;;;;;;5.03;2.10;;;;;;;26.96;51.68;100015.63;5417453;26;20341;-69
2024/04/09 11:01:59;;;;;;;4.33;2.30;;;;;;;26.95;53.21;100008.50;5419842;26;20463;-68
2024/04/09 11:04:25;;;;;;;5.17;2.30;;;;;;;27.03;50.93;100019.06;5419975;26;20225;-69
2024/04/09 11:06:57;;;;;;;5.60;2.20;;;;;;;27.15;50.10;100014.91;5419794;26;20866;-68
2024/04/09 11:09:23;;;;;;;8.13;2.70;;;;;;;27.33;49.95;100017.31;5416925;26;20269;-68
2024/04/09 11:11:52;;;;;;;6.53;1.90;;;;;;;27.49;50.44;100030.47;5419681;26;20491;-68
2024/04/09 11:14:18;;;;;;;5.43;2.47;;;;;;;27.64;49.30;100015.81;5393675;26;20237;-68
2024/04/09 11:16:49;;;;;;;4.00;2.00;;;;;;;27.84;48.72;100015.78;5386413;26;20640;-68
2024/04/09 11:19:19;;;;;;;4.00;2.20;;;;;;;28.06;48.97;100024.41;5384145;26;20988;-68
2024/04/09 11:21:47;;;;;;;7.27;2.60;;;;;;;28.33;45.87;100020.59;5384062;26;20807;-68
2024/04/09 11:24:16;;;;;;;4.90;2.37;;;;;;;28.77;46.83;100024.63;5384045;26;21072;-68
2024/04/09 11:26:45;;;;;;;4.03;1.80;;;;;;;29.12;44.95;100022.91;5397080;26;20513;-68
2024/04/09 11:29:18;;;;;;;4.07;1.83;;;;;;;29.72;46.73;100029.97;5414930;26;20467;-68